Wetterdaten: Woche 30.12.19 - 05.01.20 (KW1)
Datum Zeit Temp. A. Pool Temp. Temp. 5cm Feuchte A. Luftdruck Regen Wind Richtung Sonnenschein ET UV Solar Taupunkt Windchill Windben Empfang
30.12.2019 00:00 -5,0 C 3,9 C -9,4 C 93 % 1039,3 hPa 0,0 l/m 0,6 km/h (0 Bft) S-SO 0,00 h 0,000 mm 0,0 UV-I 0 W/m -5,9 C -5,0 C 1,2 km/h (1 Bft) 97,15 %
30.12.2019 01:00 -5,3 C 3,9 C -9,5 C 94 % 1039,2 hPa 0,0 l/m 0,9 km/h (0 Bft) S-SO 0,00 h 0,000 mm 0,0 UV-I 0 W/m -6,2 C -5,3 C 1,7 km/h (1 Bft) 96,34 %
30.12.2019 02:00 -5,6 C 3,9 C -9,9 C 94 % 1039,4 hPa 0,0 l/m 0,3 km/h (0 Bft) S-SO 0,00 h 0,000 mm 0,0 UV-I 0 W/m -6,4 C -5,6 C 0,5 km/h (0 Bft) 96,96 %
30.12.2019 03:00 -5,8 C 3,9 C -9,2 C 94 % 1038,8 hPa 0,0 l/m 1,9 km/h (1 Bft) S-SO 0,00 h 0,000 mm 0,0 UV-I 0 W/m -6,6 C -5,8 C 3,3 km/h (1 Bft) 96,18 %
30.12.2019 04:00 -5,8 C 3,9 C -9,3 C 95 % 1038,7 hPa 0,0 l/m 2,6 km/h (1 Bft) N-NO 0,00 h 0,000 mm 0,0 UV-I 0 W/m -6,5 C -5,8 C 3,9 km/h (1 Bft) 96,42 %
30.12.2019 05:00 -6,1 C 3,9 C -9,2 C 94 % 1038,8 hPa 0,0 l/m 1,3 km/h (1 Bft) S 0,00 h 0,000 mm 0,0 UV-I 0 W/m -6,9 C -6,1 C 2,2 km/h (1 Bft) 97,60 %
30.12.2019 06:00 -6,1 C 3,9 C -8,1 C 94 % 1038,7 hPa 0,0 l/m 1,6 km/h (1 Bft) S 0,00 h 0,000 mm 0,0 UV-I 0 W/m -6,9 C -6,1 C 2,9 km/h (1 Bft) 97,44 %
30.12.2019 07:00 -5,2 C 3,9 C -5,6 C 94 % 1038,7 hPa 0,0 l/m 1,0 km/h (0 Bft) S 0,00 h 0,000 mm 0,0 UV-I 7 W/m -6,0 C -5,2 C 1,9 km/h (1 Bft) 96,18 %
30.12.2019 08:00 -4,7 C 3,9 C -5,9 C 94 % 1038,6 hPa 0,0 l/m 1,1 km/h (1 Bft) S 0,67 h 0,000 mm 0,0 UV-I 42 W/m -5,5 C -4,7 C 2,2 km/h (1 Bft) 96,12 %
30.12.2019 09:00 -3,9 C 3,9 C -4,5 C 94 % 1038,5 hPa 0,0 l/m 2,6 km/h (1 Bft) S 1,00 h 0,000 mm 0,0 UV-I 123 W/m -4,8 C -3,9 C 3,8 km/h (1 Bft) 98,30 %
30.12.2019 10:00 -2,6 C 3,9 C -2,6 C 93 % 1038,2 hPa 0,0 l/m 4,4 km/h (1 Bft) NO 1,00 h 0,025 mm 0,0 UV-I 257 W/m -3,6 C -2,6 C 6,5 km/h (2 Bft) 97,81 %
30.12.2019 11:00 -1,1 C 3,9 C 0,4 C 88 % 1037,7 hPa 0,0 l/m 2,1 km/h (1 Bft) NO 0,77 h 0,077 mm 0,5 UV-I 238 W/m -2,8 C -1,1 C 3,9 km/h (1 Bft) 95,62 %
30.12.2019 12:00 -0,1 C 3,9 C 2,7 C 84 % 1036,7 hPa 0,0 l/m 1,1 km/h (1 Bft) SO 0,20 h 0,076 mm 0,5 UV-I 151 W/m -2,5 C -0,1 C 2,5 km/h (1 Bft) 96,72 %
30.12.2019 13:00 0,4 C 3,9 C 2,7 C 84 % 1036,1 hPa 0,0 l/m 2,6 km/h (1 Bft) NO 0,13 h 0,051 mm 0,0 UV-I 133 W/m -2,0 C 0,4 C 3,9 km/h (1 Bft) 96,08 %
30.12.2019 14:00 0,5 C 3,9 C 2,0 C 83 % 1035,6 hPa 0,0 l/m 2,6 km/h (1 Bft) O 0,00 h 0,050 mm 0,0 UV-I 88 W/m -2,0 C 0,5 C 3,9 km/h (1 Bft) 95,81 %
30.12.2019 15:00 0,4 C 3,9 C 0,8 C 83 % 1035,6 hPa 0,0 l/m 2,8 km/h (1 Bft) O 0,00 h 0,026 mm 0,0 UV-I 43 W/m -2,1 C 0,4 C 4,6 km/h (1 Bft) 95,27 %
30.12.2019 16:00 -0,1 C 3,9 C -1,0 C 86 % 1035,3 hPa 0,0 l/m 1,5 km/h (1 Bft) SO 0,03 h 0,025 mm 0,0 UV-I 9 W/m -2,1 C -0,1 C 2,8 km/h (1 Bft) 98,44 %
30.12.2019 17:00 -1,0 C 3,9 C -3,5 C 89 % 1034,9 hPa 0,0 l/m 1,9 km/h (1 Bft) SO 0,00 h 0,000 mm 0,0 UV-I 0 W/m -2,5 C -1,0 C 3,0 km/h (1 Bft) 96,77 %
30.12.2019 18:00 -1,7 C 3,9 C -4,6 C 91 % 1034,6 hPa 0,0 l/m 1,4 km/h (1 Bft) SO 0,00 h 0,000 mm 0,0 UV-I 0 W/m -2,9 C -1,7 C 2,4 km/h (1 Bft) 97,01 %
30.12.2019 19:00 -2,2 C 3,9 C -4,9 C 93 % 1034,2 hPa 0,0 l/m 2,0 km/h (1 Bft) SO 0,00 h 0,000 mm 0,0 UV-I 0 W/m -3,2 C -2,2 C 3,1 km/h (1 Bft) 96,23 %
30.12.2019 20:00 -2,6 C 3,9 C -5,4 C 93 % 1033,6 hPa 0,0 l/m 0,7 km/h (0 Bft) SO 0,00 h 0,000 mm 0,0 UV-I 0 W/m -3,5 C -2,6 C 1,5 km/h (1 Bft) 98,02 %
30.12.2019 21:00 -2,6 C 3,9 C -5,3 C 94 % 1033,0 hPa 0,0 l/m 2,0 km/h (1 Bft) SO 0,00 h 0,000 mm 0,0 UV-I 0 W/m -3,4 C -2,6 C 3,1 km/h (1 Bft) 96,29 %
30.12.2019 22:00 -2,7 C 3,9 C -3,7 C 94 % 1032,7 hPa 0,2 l/m 2,4 km/h (1 Bft) S-SO 0,00 h 0,000 mm 0,0 UV-I 0 W/m -3,5 C -2,7 C 3,4 km/h (1 Bft) 96,76 %
30.12.2019 23:00 -2,6 C 3,9 C -3,5 C 94 % 1032,4 hPa 0,0 l/m 3,1 km/h (1 Bft) S 0,00 h 0,000 mm 0,0 UV-I 0 W/m -3,5 C -2,6 C 4,3 km/h (1 Bft) 98,39 %
31.12.2019 00:00 -2,2 C 3,9 C -2,8 C 94 % 1031,8 hPa 0,0 l/m 1,0 km/h (0 Bft) SW 0,00 h 0,000 mm 0,0 UV-I 0 W/m -3,1 C -2,2 C 1,7 km/h (1 Bft) 95,21 %
31.12.2019 01:00 -1,9 C 3,9 C -2,4 C 94 % 1031,2 hPa 0,0 l/m 3,5 km/h (1 Bft) SW 0,00 h 0,000 mm 0,0 UV-I 0 W/m -2,8 C -1,9 C 5,3 km/h (1 Bft) 96,43 %
31.12.2019 02:00 -1,8 C 3,9 C -2,7 C 94 % 1031,4 hPa 0,0 l/m 2,6 km/h (1 Bft) W-SW 0,00 h 0,000 mm 0,0 UV-I 0 W/m -2,7 C -1,8 C 4,1 km/h (1 Bft) 95,47 %
31.12.2019 03:00 -1,7 C 3,9 C -2,4 C 93 % 1031,5 hPa 0,0 l/m 5,3 km/h (1 Bft) SW 0,00 h 0,000 mm 0,0 UV-I 0 W/m -2,6 C -1,8 C 7,7 km/h (2 Bft) 98,08 %
31.12.2019 04:00 -1,1 C 3,9 C -1,6 C 92 % 1031,3 hPa 0,0 l/m 7,9 km/h (2 Bft) S-SW 0,00 h 0,000 mm 0,0 UV-I 0 W/m -2,2 C -2,8 C 12,1 km/h (2 Bft) 97,33 %
31.12.2019 05:00 -0,9 C 3,9 C -2,2 C 90 % 1031,1 hPa 0,0 l/m 1,6 km/h (1 Bft) S-SW 0,00 h 0,000 mm 0,0 UV-I 0 W/m -2,3 C -0,9 C 2,5 km/h (1 Bft) 97,21 %
31.12.2019 06:00 -1,6 C 3,9 C -3,7 C 92 % 1031,1 hPa 0,0 l/m 2,6 km/h (1 Bft) S 0,00 h 0,000 mm 0,0 UV-I 0 W/m -2,7 C -1,6 C 3,9 km/h (1 Bft) 96,79 %
31.12.2019 07:00 -2,1 C 3,9 C -5,5 C 93 % 1031,3 hPa 0,0 l/m 2,5 km/h (1 Bft) SW 0,00 h 0,000 mm 0,0 UV-I 6 W/m -3,0 C -2,1 C 3,9 km/h (1 Bft) 96,83 %
31.12.2019 08:00 -1,7 C 3,9 C -3,5 C 93 % 1031,5 hPa 0,0 l/m 3,9 km/h (1 Bft) S-SW 0,63 h 0,000 mm 0,0 UV-I 56 W/m -2,8 C -1,7 C 5,7 km/h (1 Bft) 98,31 %
31.12.2019 09:00 -0,3 C 3,9 C -1,8 C 90 % 1032,0 hPa 0,0 l/m 1,6 km/h (1 Bft) N-NW 1,00 h 0,025 mm 0,0 UV-I 146 W/m -1,7 C -0,3 C 3,0 km/h (1 Bft) 97,50 %
31.12.2019 10:00 2,0 C 3,9 C 0,5 C 85 % 1032,3 hPa 0,0 l/m 5,4 km/h (1 Bft) W 1,00 h 0,051 mm 0,0 UV-I 229 W/m -0,3 C 1,5 C 10,0 km/h (2 Bft) 98,19 %
31.12.2019 11:00 3,7 C 3,9 C 3,6 C 80 % 1032,0 hPa 0,0 l/m 7,6 km/h (2 Bft) W 1,00 h 0,102 mm 0,5 UV-I 277 W/m 0,6 C 2,2 C 12,3 km/h (3 Bft) 97,03 %
31.12.2019 12:00 5,8 C 3,9 C 5,0 C 73 % 1031,5 hPa 0,0 l/m 8,6 km/h (2 Bft) W 1,00 h 0,127 mm 0,5 UV-I 282 W/m 1,3 C 3,9 C 14,4 km/h (3 Bft) 95,49 %
31.12.2019 13:00 6,8 C 3,9 C 6,4 C 64 % 1031,1 hPa 0,0 l/m 9,2 km/h (2 Bft) W 1,00 h 0,127 mm 0,5 UV-I 285 W/m 0,5 C 4,7 C 15,7 km/h (3 Bft) 97,64 %
31.12.2019 14:00 6,0 C 3,9 C 5,6 C 66 % 1031,4 hPa 0,0 l/m 6,4 km/h (2 Bft) NW 0,20 h 0,152 mm 0,0 UV-I 86 W/m 0,1 C 5,5 C 12,5 km/h (3 Bft) 98,84 %
31.12.2019 15:00 4,0 C 3,9 C 3,2 C 77 % 1032,0 hPa 0,0 l/m 6,6 km/h (2 Bft) NW 0,00 h 0,051 mm 0,0 UV-I 16 W/m 0,3 C 3,4 C 12,2 km/h (2 Bft) 97,19 %
31.12.2019 16:00 3,7 C 3,9 C 2,9 C 76 % 1032,8 hPa 0,0 l/m 6,9 km/h (2 Bft) W-NW 0,00 h 0,025 mm 0,0 UV-I 6 W/m -0,2 C 2,7 C 12,2 km/h (3 Bft) 98,01 %
31.12.2019 17:00 3,3 C 3,9 C 2,3 C 76 % 1033,1 hPa 0,0 l/m 6,8 km/h (2 Bft) W 0,00 h 0,026 mm 0,0 UV-I 0 W/m -0,6 C 2,5 C 11,1 km/h (2 Bft) 95,95 %
31.12.2019 18:00 2,5 C 3,9 C 1,6 C 84 % 1033,6 hPa 0,0 l/m 8,3 km/h (2 Bft) W 0,00 h 0,025 mm 0,0 UV-I 0 W/m 0,0 C 0,7 C 12,8 km/h (3 Bft) 95,86 %
31.12.2019 19:00 2,7 C 3,9 C 1,5 C 81 % 1034,4 hPa 0,0 l/m 8,6 km/h (2 Bft) W 0,00 h 0,026 mm 0,0 UV-I 0 W/m -0,2 C 0,6 C 13,7 km/h (3 Bft) 97,57 %
31.12.2019 20:00 2,8 C 3,9 C 2,0 C 81 % 1035,0 hPa 0,0 l/m 8,6 km/h (2 Bft) W 0,00 h 0,025 mm 0,0 UV-I 0 W/m -0,1 C 0,9 C 13,0 km/h (3 Bft) 97,88 %
31.12.2019 21:00 2,9 C 3,9 C 1,9 C 80 % 1035,0 hPa 0,0 l/m 6,8 km/h (2 Bft) W 0,00 h 0,025 mm 0,0 UV-I 0 W/m -0,2 C 2,1 C 10,4 km/h (2 Bft) 97,66 %
31.12.2019 22:00 2,5 C 3,9 C 1,7 C 83 % 1034,9 hPa 0,0 l/m 4,2 km/h (1 Bft) W-SW 0,00 h 0,026 mm 0,0 UV-I 0 W/m -0,0 C 2,5 C 6,4 km/h (2 Bft) 95,53 %
31.12.2019 23:00 2,3 C 3,9 C 1,4 C 84 % 1034,6 hPa 0,0 l/m 2,7 km/h (1 Bft) W 0,00 h 0,000 mm 0,0 UV-I 0 W/m -0,0 C 2,3 C 4,3 km/h (1 Bft) 97,62 %
01.01.2020 00:00 1,5 C 3,9 C 0,5 C 88 % 1034,6 hPa 0,0 l/m 1,2 km/h (1 Bft) W-SW 0,00 h 0,000 mm 0,0 UV-I 0 W/m -0,3 C 1,5 C 2,2 km/h (1 Bft) 96,34 %
01.01.2020 01:00 1,2 C 3,9 C 0,6 C 89 % 1034,8 hPa 0,0 l/m 0,8 km/h (0 Bft) N-NW 0,00 h 0,000 mm 0,0 UV-I 0 W/m -0,4 C 1,2 C 1,3 km/h (1 Bft) 98,39 %
01.01.2020 02:00 1,1 C 3,9 C 0,6 C 89 % 1035,1 hPa 0,0 l/m 0,0 km/h (0 Bft) N 0,00 h 0,000 mm 0,0 UV-I 0 W/m -0,4 C 1,1 C 0,0 km/h (0 Bft) 95,64 %
01.01.2020 03:00 1,1 C 3,9 C 0,6 C 90 % 1035,0 hPa 0,0 l/m 1,2 km/h (1 Bft) S-SW 0,00 h 0,000 mm 0,0 UV-I 0 W/m -0,4 C 1,1 C 1,8 km/h (1 Bft) 96,58 %
01.01.2020 04:00 0,7 C 3,9 C 0,1 C 91 % 1034,4 hPa 0,0 l/m 2,4 km/h (1 Bft) S-SW 0,00 h 0,000 mm 0,0 UV-I 0 W/m -0,6 C 0,7 C 3,7 km/h (1 Bft) 97,20 %
01.01.2020 05:00 0,5 C 3,9 C -0,7 C 92 % 1034,1 hPa 0,0 l/m 1,8 km/h (1 Bft) O-NO 0,00 h 0,000 mm 0,0 UV-I 0 W/m -0,7 C 0,5 C 2,9 km/h (1 Bft) 98,03 %
01.01.2020 06:00 -0,2 C 3,9 C -1,5 C 93 % 1034,6 hPa 0,0 l/m 4,9 km/h (1 Bft) NO 0,00 h 0,000 mm 0,0 UV-I 0 W/m -1,2 C -0,4 C 6,8 km/h (2 Bft) 96,94 %
01.01.2020 07:00 -1,1 C 3,9 C -3,8 C 94 % 1034,7 hPa 0,0 l/m 1,2 km/h (1 Bft) S 0,00 h 0,000 mm 0,0 UV-I 7 W/m -1,9 C -1,1 C 2,2 km/h (1 Bft) 94,98 %
01.01.2020 08:00 -1,5 C 3,9 C -4,6 C 95 % 1035,2 hPa 0,0 l/m 1,4 km/h (1 Bft) S 0,67 h 0,000 mm 0,0 UV-I 43 W/m -2,2 C -1,5 C 2,7 km/h (1 Bft) 98,12 %
01.01.2020 09:00 -0,8 C 3,9 C -2,6 C 95 % 1035,6 hPa 0,0 l/m 0,6 km/h (0 Bft) S 1,00 h 0,025 mm 0,0 UV-I 137 W/m -1,5 C -0,8 C 1,1 km/h (1 Bft) 97,05 %
01.01.2020 10:00 1,2 C 3,9 C -0,6 C 89 % 1035,3 hPa 0,0 l/m 0,4 km/h (0 Bft) S 1,00 h 0,051 mm 0,0 UV-I 220 W/m -0,3 C 1,2 C 1,0 km/h (0 Bft) 97,74 %
01.01.2020 11:00 2,7 C 3,9 C 2,7 C 85 % 1034,9 hPa 0,0 l/m 4,1 km/h (1 Bft) NO 1,00 h 0,076 mm 0,5 UV-I 270 W/m 0,4 C 2,6 C 5,8 km/h (2 Bft) 96,97 %
01.01.2020 12:00 3,1 C 3,9 C 2,9 C 84 % 1034,5 hPa 0,0 l/m 6,3 km/h (2 Bft) NO 1,00 h 0,102 mm 0,5 UV-I 274 W/m 0,6 C 2,5 C 8,9 km/h (2 Bft) 97,70 %
01.01.2020 13:00 3,9 C 3,9 C 3,3 C 79 % 1033,8 hPa 0,0 l/m 3,5 km/h (1 Bft) O 1,00 h 0,102 mm 0,4 UV-I 236 W/m 0,6 C 3,9 C 5,6 km/h (1 Bft) 96,53 %
01.01.2020 14:00 4,0 C 3,9 C 2,8 C 77 % 1033,7 hPa 0,0 l/m 5,3 km/h (1 Bft) O 1,00 h 0,101 mm 0,0 UV-I 160 W/m 0,4 C 4,0 C 8,3 km/h (2 Bft) 97,50 %
01.01.2020 15:00 3,2 C 3,9 C -0,7 C 80 % 1033,5 hPa 0,0 l/m 3,0 km/h (1 Bft) O 1,00 h 0,076 mm 0,0 UV-I 71 W/m 0,0 C 3,2 C 4,3 km/h (1 Bft) 96,76 %
01.01.2020 16:00 1,4 C 3,9 C -3,2 C 86 % 1033,5 hPa 0,0 l/m 3,2 km/h (1 Bft) O-SO 0,13 h 0,026 mm 0,0 UV-I 11 W/m -0,7 C 1,4 C 4,7 km/h (1 Bft) 96,62 %
01.01.2020 17:00 0,6 C 3,9 C -4,9 C 88 % 1033,8 hPa 0,0 l/m 2,7 km/h (1 Bft) O 0,00 h 0,000 mm 0,0 UV-I 0 W/m -1,1 C 0,6 C 4,2 km/h (1 Bft) 96,55 %
01.01.2020 18:00 -0,6 C 3,9 C -5,6 C 91 % 1033,9 hPa 0,0 l/m 1,8 km/h (1 Bft) SO 0,00 h 0,000 mm 0,0 UV-I 0 W/m -1,9 C -0,6 C 3,3 km/h (1 Bft) 98,26 %
01.01.2020 19:00 -1,4 C 3,9 C -6,1 C 93 % 1034,0 hPa 0,0 l/m 1,5 km/h (1 Bft) O 0,00 h 0,000 mm 0,0 UV-I 0 W/m -2,4 C -1,4 C 2,8 km/h (1 Bft) 97,04 %
01.01.2020 20:00 -1,3 C 3,9 C -6,9 C 93 % 1034,1 hPa 0,0 l/m 1,5 km/h (1 Bft) O 0,00 h 0,000 mm 0,0 UV-I 0 W/m -2,2 C -1,3 C 2,5 km/h (1 Bft) 94,73 %
01.01.2020 21:00 -2,2 C 3,9 C -6,7 C 95 % 1033,8 hPa 0,0 l/m 1,8 km/h (1 Bft) O 0,00 h 0,000 mm 0,0 UV-I 0 W/m -3,0 C -2,2 C 3,1 km/h (1 Bft) 98,16 %
01.01.2020 22:00 -2,1 C 3,9 C -7,3 C 95 % 1033,3 hPa 0,0 l/m 1,9 km/h (1 Bft) O-NO 0,00 h 0,000 mm 0,0 UV-I 0 W/m -2,7 C -2,1 C 2,6 km/h (1 Bft) 97,42 %
01.01.2020 23:00 -2,1 C 3,9 C -7,5 C 95 % 1033,0 hPa 0,0 l/m 2,3 km/h (1 Bft) O-NO 0,00 h 0,000 mm 0,0 UV-I 0 W/m -2,8 C -2,1 C 3,5 km/h (1 Bft) 95,32 %
02.01.2020 00:00 -3,0 C 3,9 C -7,7 C 95 % 1032,3 hPa 0,0 l/m 0,4 km/h (0 Bft) O 0,00 h 0,000 mm 0,0 UV-I 0 W/m -3,7 C -3,0 C 0,7 km/h (0 Bft) 94,43 %
02.01.2020 01:00 -3,2 C 3,9 C -7,5 C 95 % 1032,0 hPa 0,0 l/m 3,4 km/h (1 Bft) NO 0,00 h 0,000 mm 0,0 UV-I 0 W/m -3,8 C -3,2 C 4,7 km/h (1 Bft) 96,57 %
02.01.2020 02:00 -2,7 C 3,9 C -6,6 C 96 % 1031,4 hPa 0,0 l/m 4,0 km/h (1 Bft) S-SO 0,00 h 0,000 mm 0,0 UV-I 0 W/m -3,2 C -2,8 C 6,2 km/h (2 Bft) 95,80 %
02.01.2020 03:00 -3,2 C 3,9 C -8,0 C 96 % 1031,1 hPa 0,0 l/m 1,0 km/h (0 Bft) O-NO 0,00 h 0,000 mm 0,0 UV-I 0 W/m -3,8 C -3,2 C 2,1 km/h (1 Bft) 97,61 %
02.01.2020 04:00 -3,6 C 3,8 C -9,0 C 95 % 1030,8 hPa 0,0 l/m 0,5 km/h (0 Bft) O-NO 0,00 h 0,000 mm 0,0 UV-I 0 W/m -4,3 C -3,6 C 1,1 km/h (1 Bft) 97,03 %
02.01.2020 05:00 -3,9 C 3,8 C -8,9 C 96 % 1030,5 hPa 0,0 l/m 1,5 km/h (1 Bft) O-NO 0,00 h 0,000 mm 0,0 UV-I 0 W/m -4,4 C -3,9 C 2,4 km/h (1 Bft) 96,51 %
02.01.2020 06:00 -4,5 C 3,4 C -9,6 C 96 % 1030,6 hPa 0,0 l/m 0,2 km/h (0 Bft) SW 0,00 h 0,000 mm 0,0 UV-I 0 W/m -5,2 C -4,5 C 0,4 km/h (0 Bft) 96,69 %
02.01.2020 07:00 -4,8 C 3,5 C -9,3 C 95 % 1030,9 hPa 0,0 l/m 2,4 km/h (1 Bft) SW 0,00 h 0,000 mm 0,0 UV-I 6 W/m -5,5 C -4,8 C 3,5 km/h (1 Bft) 97,09 %
02.01.2020 08:00 -4,9 C 3,5 C -6,4 C 95 % 1031,2 hPa 0,0 l/m 4,6 km/h (1 Bft) SW 0,17 h 0,000 mm 0,0 UV-I 29 W/m -5,5 C -4,9 C 6,3 km/h (2 Bft) 97,33 %
02.01.2020 09:00 -4,3 C 3,5 C -4,5 C 96 % 1031,2 hPa 0,0 l/m 4,3 km/h (1 Bft) SW 0,37 h 0,000 mm 0,0 UV-I 104 W/m -4,8 C -4,3 C 6,1 km/h (2 Bft) 96,83 %
02.01.2020 10:00 -2,6 C 3,3 C -3,1 C 96 % 1031,1 hPa 0,2 l/m 3,1 km/h (1 Bft) SW 1,00 h 0,025 mm 0,0 UV-I 228 W/m -3,2 C -2,6 C 4,7 km/h (1 Bft) 97,23 %
02.01.2020 11:00 -0,8 C 3,5 C -0,4 C 94 % 1030,7 hPa 0,0 l/m 2,4 km/h (1 Bft) SW 1,00 h 0,077 mm 0,5 UV-I 274 W/m -1,6 C -0,8 C 4,4 km/h (1 Bft) 96,28 %
02.01.2020 12:00 0,5 C 3,5 C 0,3 C 88 % 1030,4 hPa 0,0 l/m 1,4 km/h (1 Bft) N 1,00 h 0,076 mm 0,5 UV-I 282 W/m -1,3 C 0,5 C 2,8 km/h (1 Bft) 97,14 %
02.01.2020 13:00 2,0 C 3,6 C 1,4 C 82 % 1029,7 hPa 0,0 l/m 3,0 km/h (1 Bft) S 1,00 h 0,101 mm 0,5 UV-I 243 W/m -0,8 C 2,0 C 5,4 km/h (1 Bft) 95,68 %
02.01.2020 14:00 2,7 C 3,4 C 1,3 C 78 % 1029,5 hPa 0,0 l/m 4,1 km/h (1 Bft) SW 1,00 h 0,102 mm 0,0 UV-I 164 W/m -0,8 C 2,7 C 6,4 km/h (2 Bft) 96,95 %
02.01.2020 15:00 2,4 C 3,7 C -1,0 C 80 % 1029,2 hPa 0,0 l/m 3,9 km/h (1 Bft) SW 1,00 h 0,076 mm 0,0 UV-I 73 W/m -0,8 C 2,4 C 5,7 km/h (1 Bft) 96,35 %
02.01.2020 16:00 0,5 C 3,7 C -4,0 C 87 % 1029,0 hPa 0,0 l/m 3,1 km/h (1 Bft) SW 0,17 h 0,026 mm 0,0 UV-I 12 W/m -1,4 C 0,5 C 4,3 km/h (1 Bft) 98,55 %
02.01.2020 17:00 -1,0 C 3,6 C -5,5 C 91 % 1029,0 hPa 0,0 l/m 3,0 km/h (1 Bft) S-SW 0,00 h 0,000 mm 0,0 UV-I 0 W/m -2,2 C -1,0 C 4,2 km/h (1 Bft) 96,40 %
02.01.2020 18:00 -1,4 C 3,6 C -5,4 C 93 % 1029,1 hPa 0,0 l/m 4,3 km/h (1 Bft) S-SW 0,00 h 0,000 mm 0,0 UV-I 0 W/m -2,4 C -1,6 C 5,3 km/h (1 Bft) 95,64 %
02.01.2020 19:00 -1,8 C 3,5 C -6,3 C 94 % 1029,2 hPa 0,0 l/m 4,5 km/h (1 Bft) S 0,00 h 0,000 mm 0,0 UV-I 0 W/m -2,6 C -1,8 C 5,5 km/h (1 Bft) 98,58 %
02.01.2020 20:00 -1,4 C 3,8 C -6,2 C 93 % 1029,2 hPa 0,0 l/m 4,9 km/h (1 Bft) S-SW 0,00 h 0,000 mm 0,0 UV-I 0 W/m -2,4 C -1,4 C 6,3 km/h (2 Bft) 98,70 %
02.01.2020 21:00 -1,8 C 3,6 C -4,4 C 94 % 1029,1 hPa 0,0 l/m 5,6 km/h (1 Bft) S-SW 0,00 h 0,000 mm 0,0 UV-I 0 W/m -2,7 C -1,9 C 7,3 km/h (2 Bft) 93,88 %
02.01.2020 22:00 -1,9 C 3,5 C -5,6 C 94 % 1029,0 hPa 0,0 l/m 4,8 km/h (1 Bft) S-SW 0,00 h 0,000 mm 0,0 UV-I 0 W/m -2,8 C -2,0 C 6,3 km/h (2 Bft) 97,88 %
02.01.2020 23:00 -1,9 C 3,5 C -7,0 C 94 % 1029,1 hPa 0,0 l/m 4,0 km/h (1 Bft) S-SW 0,00 h 0,000 mm 0,0 UV-I 0 W/m -2,7 C -1,9 C 5,6 km/h (1 Bft) 98,05 %
03.01.2020 00:00 -3,0 C 3,4 C -7,8 C 95 % 1028,9 hPa 0,0 l/m 4,3 km/h (1 Bft) S-SW 0,00 h 0,000 mm 0,0 UV-I 0 W/m -3,7 C -3,0 C 5,5 km/h (1 Bft) 97,12 %
03.01.2020 01:00 -2,5 C 3,3 C -5,8 C 95 % 1028,9 hPa 0,0 l/m 4,7 km/h (1 Bft) W-SW 0,00 h 0,000 mm 0,0 UV-I 0 W/m -3,2 C -2,5 C 6,9 km/h (2 Bft) 96,43 %
03.01.2020 02:00 -3,8 C 3,3 C -5,0 C 96 % 1029,0 hPa 0,0 l/m 4,2 km/h (1 Bft) W-SW 0,00 h 0,000 mm 0,0 UV-I 0 W/m -4,4 C -3,8 C 6,0 km/h (2 Bft) 96,07 %
03.01.2020 03:00 -4,2 C 3,3 C -4,1 C 96 % 1028,8 hPa 0,0 l/m 2,6 km/h (1 Bft) W-SW 0,00 h 0,000 mm 0,0 UV-I 0 W/m -4,8 C -4,2 C 4,3 km/h (1 Bft) 97,99 %
03.01.2020 04:00 -4,1 C 3,3 C -3,9 C 96 % 1028,7 hPa 0,0 l/m 2,6 km/h (1 Bft) W-NW 0,00 h 0,000 mm 0,0 UV-I 0 W/m -4,6 C -4,1 C 4,5 km/h (1 Bft) 98,11 %
03.01.2020 05:00 -3,7 C 3,3 C -3,4 C 96 % 1028,8 hPa 0,0 l/m 3,3 km/h (1 Bft) W-SW 0,00 h 0,000 mm 0,0 UV-I 0 W/m -4,3 C -3,7 C 5,6 km/h (1 Bft) 96,12 %
03.01.2020 06:00 -3,8 C 3,3 C -3,5 C 96 % 1028,9 hPa 0,0 l/m 2,0 km/h (1 Bft) SW 0,00 h 0,000 mm 0,0 UV-I 0 W/m -4,4 C -3,8 C 3,1 km/h (1 Bft) 97,57 %
03.01.2020 07:00 -4,0 C 3,3 C -3,8 C 96 % 1028,9 hPa 0,0 l/m 2,3 km/h (1 Bft) SW 0,00 h 0,000 mm 0,0 UV-I 5 W/m -4,6 C -4,0 C 3,8 km/h (1 Bft) 97,19 %
03.01.2020 08:00 -4,3 C 3,3 C -3,8 C 96 % 1028,9 hPa 0,0 l/m 1,4 km/h (1 Bft) N-NW 0,07 h 0,000 mm 0,0 UV-I 24 W/m -4,8 C -4,3 C 2,8 km/h (1 Bft) 97,64 %
03.01.2020 09:00 -3,7 C 3,3 C -2,3 C 96 % 1028,5 hPa 0,0 l/m 2,0 km/h (1 Bft) N 0,00 h 0,000 mm 0,0 UV-I 69 W/m -4,3 C -3,7 C 3,6 km/h (1 Bft) 95,26 %
03.01.2020 10:00 -3,3 C 3,3 C -1,4 C 96 % 1027,9 hPa 0,0 l/m 1,8 km/h (1 Bft) O 0,00 h 0,025 mm 0,0 UV-I 92 W/m -3,9 C -3,3 C 3,5 km/h (1 Bft) 98,89 %
03.01.2020 11:00 -2,9 C 3,3 C -0,2 C 96 % 1026,9 hPa 0,0 l/m 2,4 km/h (1 Bft) O-NO 0,00 h 0,026 mm 0,0 UV-I 145 W/m -3,4 C -2,9 C 4,3 km/h (1 Bft) 96,79 %
03.01.2020 12:00 -2,4 C 3,3 C 0,0 C 96 % 1026,1 hPa 0,0 l/m 2,1 km/h (1 Bft) NO 0,00 h 0,051 mm 0,0 UV-I 125 W/m -2,9 C -2,4 C 3,8 km/h (1 Bft) 98,36 %
03.01.2020 13:00 -2,1 C 3,3 C 0,4 C 97 % 1025,6 hPa 0,0 l/m 1,2 km/h (1 Bft) NW 0,00 h 0,025 mm 0,0 UV-I 116 W/m -2,6 C -2,1 C 2,8 km/h (1 Bft) 95,36 %
03.01.2020 14:00 -1,8 C 3,3 C 0,1 C 97 % 1025,5 hPa 0,0 l/m 1,7 km/h (1 Bft) SW 0,00 h 0,025 mm 0,0 UV-I 87 W/m -2,2 C -1,8 C 3,7 km/h (1 Bft) 96,86 %
03.01.2020 15:00 -1,7 C 3,3 C -0,9 C 97 % 1025,7 hPa 0,0 l/m 2,4 km/h (1 Bft) W-SW 0,00 h 0,026 mm 0,0 UV-I 43 W/m -2,1 C -1,7 C 4,1 km/h (1 Bft) 97,12 %
03.01.2020 16:00 -2,0 C 3,3 C -2,3 C 97 % 1026,0 hPa 0,0 l/m 1,0 km/h (0 Bft) W-SW 0,10 h 0,025 mm 0,0 UV-I 10 W/m -2,4 C -2,0 C 2,1 km/h (1 Bft) 98,25 %
03.01.2020 17:00 -2,2 C 3,3 C -2,5 C 97 % 1026,2 hPa 0,0 l/m 1,7 km/h (1 Bft) N 0,00 h 0,000 mm 0,0 UV-I 0 W/m -2,6 C -2,2 C 3,0 km/h (1 Bft) 95,81 %
03.01.2020 18:00 -2,0 C 3,3 C -2,0 C 97 % 1026,7 hPa 0,0 l/m 1,3 km/h (1 Bft) NW 0,00 h 0,000 mm 0,0 UV-I 0 W/m -2,4 C -2,0 C 2,3 km/h (1 Bft) 97,45 %
03.01.2020 19:00 -1,3 C 3,3 C -0,9 C 97 % 1026,6 hPa 0,0 l/m 2,0 km/h (1 Bft) S-SO 0,00 h 0,000 mm 0,0 UV-I 0 W/m -1,8 C -1,3 C 3,7 km/h (1 Bft) 97,84 %
03.01.2020 20:00 -0,8 C 3,3 C -0,4 C 97 % 1026,7 hPa 0,0 l/m 0,7 km/h (0 Bft) SW 0,00 h 0,000 mm 0,0 UV-I 0 W/m -1,2 C -0,8 C 1,6 km/h (1 Bft) 98,37 %
03.01.2020 21:00 -0,4 C 3,3 C 0,0 C 97 % 1026,8 hPa 0,0 l/m 3,0 km/h (1 Bft) S 0,00 h 0,000 mm 0,0 UV-I 0 W/m -0,8 C -0,4 C 5,1 km/h (1 Bft) 96,85 %
03.01.2020 22:00 1,2 C 3,3 C 0,3 C 98 % 1026,8 hPa 0,0 l/m 6,5 km/h (2 Bft) SW 0,00 h 0,000 mm 0,0 UV-I 0 W/m 0,9 C 0,1 C 9,6 km/h (2 Bft) 96,12 %
03.01.2020 23:00 4,3 C 3,3 C 2,6 C 96 % 1026,6 hPa 0,0 l/m 15,7 km/h (3 Bft) W-SW 0,00 h 0,000 mm 0,0 UV-I 0 W/m 3,7 C -2,1 C 22,8 km/h (4 Bft) 97,20 %
04.01.2020 00:00 5,7 C 3,3 C 4,5 C 91 % 1026,4 hPa 0,2 l/m 17,8 km/h (3 Bft) W-SW 0,00 h 0,000 mm 0,0 UV-I 0 W/m 4,3 C -1,3 C 26,3 km/h (4 Bft) 97,46 %
04.01.2020 01:00 6,5 C 3,3 C 5,5 C 86 % 1026,2 hPa 0,0 l/m 18,7 km/h (3 Bft) SW 0,00 h 0,025 mm 0,0 UV-I 0 W/m 4,4 C -0,6 C 28,4 km/h (4 Bft) 98,89 %
04.01.2020 02:00 5,5 C 3,3 C 4,3 C 90 % 1026,2 hPa 0,6 l/m 11,3 km/h (2 Bft) W-SW 0,00 h 0,026 mm 0,0 UV-I 0 W/m 4,0 C 1,9 C 17,0 km/h (3 Bft) 96,94 %
04.01.2020 03:00 5,5 C 3,3 C 4,4 C 91 % 1025,9 hPa 0,4 l/m 15,6 km/h (3 Bft) W-SW 0,00 h 0,000 mm 0,0 UV-I 0 W/m 4,2 C -0,4 C 23,8 km/h (4 Bft) 97,85 %
04.01.2020 04:00 5,6 C 3,3 C 4,7 C 92 % 1025,5 hPa 0,2 l/m 19,6 km/h (3 Bft) W-SW 0,00 h 0,025 mm 0,0 UV-I 0 W/m 4,4 C -2,2 C 29,1 km/h (5 Bft) 95,01 %
04.01.2020 05:00 5,5 C 3,3 C 4,9 C 93 % 1025,5 hPa 0,2 l/m 18,2 km/h (3 Bft) W-SW 0,00 h 0,026 mm 0,0 UV-I 0 W/m 4,5 C -1,8 C 27,2 km/h (4 Bft) 99,22 %
04.01.2020 06:00 5,5 C 3,3 C 4,9 C 94 % 1025,3 hPa 0,0 l/m 17,7 km/h (3 Bft) W-SW 0,00 h 0,025 mm 0,0 UV-I 0 W/m 4,6 C -1,6 C 26,0 km/h (4 Bft) 97,49 %
04.01.2020 07:00 5,4 C 3,3 C 5,0 C 95 % 1025,8 hPa 0,4 l/m 12,9 km/h (3 Bft) W 0,00 h 0,000 mm 0,0 UV-I 6 W/m 4,6 C 0,8 C 20,2 km/h (4 Bft) 97,30 %
04.01.2020 08:00 5,9 C 3,3 C 5,3 C 94 % 1026,1 hPa 0,0 l/m 14,2 km/h (3 Bft) W 0,00 h 0,000 mm 0,0 UV-I 23 W/m 4,9 C 0,6 C 20,4 km/h (4 Bft) 95,83 %
04.01.2020 09:00 6,2 C 3,3 C 5,6 C 92 % 1026,5 hPa 0,0 l/m 14,4 km/h (3 Bft) W 0,00 h 0,025 mm 0,0 UV-I 31 W/m 4,9 C 0,8 C 22,1 km/h (4 Bft) 97,87 %
04.01.2020 10:00 5,0 C 3,3 C 5,0 C 93 % 1026,9 hPa 0,2 l/m 12,9 km/h (3 Bft) W 0,00 h 0,026 mm 0,0 UV-I 61 W/m 4,0 C 0,3 C 22,9 km/h (4 Bft) 98,23 %
04.01.2020 11:00 4,1 C 3,3 C 4,2 C 87 % 1027,0 hPa 0,2 l/m 16,5 km/h (3 Bft) W 0,00 h 0,025 mm 0,0 UV-I 112 W/m 2,1 C -2,7 C 27,2 km/h (4 Bft) 97,73 %
04.01.2020 12:00 4,0 C 3,3 C 3,8 C 86 % 1026,6 hPa 0,0 l/m 16,0 km/h (3 Bft) W 0,00 h 0,051 mm 0,0 UV-I 92 W/m 1,9 C -2,6 C 25,4 km/h (4 Bft) 96,63 %
04.01.2020 13:00 4,1 C 3,3 C 3,6 C 82 % 1026,4 hPa 0,0 l/m 18,3 km/h (3 Bft) W 0,00 h 0,051 mm 0,0 UV-I 76 W/m 1,3 C -3,5 C 28,3 km/h (4 Bft) 97,30 %
04.01.2020 14:00 4,1 C 3,3 C 3,4 C 82 % 1026,2 hPa 0,0 l/m 16,9 km/h (3 Bft) W 0,00 h 0,051 mm 0,0 UV-I 40 W/m 1,2 C -2,9 C 25,0 km/h (4 Bft) 98,27 %
04.01.2020 15:00 3,9 C 3,3 C 3,3 C 82 % 1026,5 hPa 0,0 l/m 17,8 km/h (3 Bft) W 0,00 h 0,050 mm 0,0 UV-I 12 W/m 1,2 C -3,5 C 26,3 km/h (4 Bft) 97,14 %
04.01.2020 16:00 3,7 C 3,3 C 2,7 C 83 % 1027,0 hPa 0,0 l/m 20,3 km/h (4 Bft) W 0,00 h 0,026 mm 0,0 UV-I 4 W/m 1,1 C -4,9 C 31,3 km/h (5 Bft) 96,74 %
04.01.2020 17:00 3,9 C 3,3 C 3,1 C 82 % 1027,3 hPa 0,0 l/m 20,5 km/h (4 Bft) W 0,00 h 0,025 mm 0,0 UV-I 0 W/m 1,0 C -4,7 C 30,9 km/h (5 Bft) 96,49 %
04.01.2020 18:00 3,6 C 3,3 C 2,8 C 84 % 1027,1 hPa 0,0 l/m 23,8 km/h (4 Bft) W 0,00 h 0,026 mm 0,0 UV-I 0 W/m 1,2 C -6,4 C 36,2 km/h (5 Bft) 98,54 %
04.01.2020 19:00 3,2 C 3,3 C 2,2 C 88 % 1026,8 hPa 0,2 l/m 24,8 km/h (4 Bft) W-SW 0,00 h 0,025 mm 0,0 UV-I 0 W/m 1,3 C -7,3 C 38,7 km/h (5 Bft) 97,23 %
04.01.2020 20:00 3,0 C 3,3 C 2,2 C 90 % 1026,7 hPa 0,4 l/m 27,2 km/h (4 Bft) W 0,00 h 0,025 mm 0,0 UV-I 0 W/m 1,4 C -8,4 C 42,4 km/h (6 Bft) 96,78 %
04.01.2020 21:00 3,5 C 3,3 C 2,3 C 86 % 1026,5 hPa 0,0 l/m 28,3 km/h (4 Bft) W 0,00 h 0,026 mm 0,0 UV-I 0 W/m 1,3 C -8,0 C 45,5 km/h (6 Bft) 97,06 %
04.01.2020 22:00 3,7 C 3,3 C 2,6 C 84 % 1026,9 hPa 0,0 l/m 27,1 km/h (4 Bft) W 0,00 h 0,025 mm 0,0 UV-I 0 W/m 1,3 C -7,3 C 42,4 km/h (6 Bft) 98,44 %
04.01.2020 23:00 3,3 C 3,3 C 2,2 C 88 % 1027,2 hPa 0,2 l/m 23,4 km/h (4 Bft) W 0,00 h 0,026 mm 0,0 UV-I 0 W/m 1,5 C -6,6 C 36,3 km/h (5 Bft) 97,90 %
05.01.2020 00:00 3,4 C 3,3 C 2,2 C 89 % 1027,8 hPa 0,2 l/m 22,9 km/h (4 Bft) W 0,00 h 0,000 mm 0,0 UV-I 0 W/m 1,7 C -6,4 C 37,4 km/h (5 Bft) 96,31 %
05.01.2020 01:00 3,6 C 3,3 C 2,7 C 88 % 1028,4 hPa 0,0 l/m 20,9 km/h (4 Bft) W-NW 0,00 h 0,025 mm 0,0 UV-I 0 W/m 1,8 C -5,3 C 32,9 km/h (5 Bft) 97,12 %
05.01.2020 02:00 3,1 C 3,3 C 2,2 C 90 % 1029,2 hPa 0,0 l/m 19,7 km/h (3 Bft) W 0,00 h 0,026 mm 0,0 UV-I 0 W/m 1,6 C -5,4 C 30,7 km/h (5 Bft) 98,16 %
05.01.2020 03:00 2,8 C 3,3 C 2,2 C 92 % 1029,8 hPa 0,0 l/m 17,6 km/h (3 Bft) W 0,00 h 0,025 mm 0,0 UV-I 0 W/m 1,6 C -4,8 C 27,4 km/h (4 Bft) 98,42 %
05.01.2020 04:00 2,5 C 3,3 C 1,6 C 92 % 1031,0 hPa 0,2 l/m 8,8 km/h (2 Bft) W 0,00 h 0,000 mm 0,0 UV-I 0 W/m 1,4 C 0,2 C 15,7 km/h (3 Bft) 95,37 %
05.01.2020 05:00 2,0 C 3,3 C 0,6 C 92 % 1032,1 hPa 0,2 l/m 6,4 km/h (2 Bft) W 0,00 h 0,000 mm 0,0 UV-I 0 W/m 0,9 C 1,1 C 11,1 km/h (2 Bft) 98,17 %
05.01.2020 06:00 1,2 C 3,3 C -1,3 C 87 % 1033,0 hPa 0,0 l/m 5,0 km/h (1 Bft) W-NW 0,00 h 0,000 mm 0,0 UV-I 0 W/m -0,6 C 0,8 C 9,8 km/h (2 Bft) 96,75 %
05.01.2020 07:00 0,8 C 3,3 C -1,2 C 89 % 1034,0 hPa 0,0 l/m 7,0 km/h (2 Bft) W 0,00 h 0,000 mm 0,0 UV-I 7 W/m -0,9 C -1,0 C 10,0 km/h (2 Bft) 97,56 %
05.01.2020 08:00 0,5 C 3,3 C -0,9 C 89 % 1034,9 hPa 0,0 l/m 8,1 km/h (2 Bft) W 0,70 h 0,000 mm 0,0 UV-I 50 W/m -1,1 C -1,3 C 12,4 km/h (3 Bft) 94,47 %
05.01.2020 09:00 1,3 C 3,3 C -0,5 C 88 % 1035,6 hPa 0,0 l/m 4,5 km/h (1 Bft) W 1,00 h 0,026 mm 0,0 UV-I 157 W/m -0,5 C 1,1 C 8,0 km/h (2 Bft) 96,60 %
05.01.2020 10:00 2,3 C 3,3 C 0,7 C 84 % 1035,8 hPa 0,0 l/m 5,5 km/h (1 Bft) W 0,73 h 0,050 mm 0,0 UV-I 211 W/m -0,1 C 1,8 C 9,9 km/h (2 Bft) 95,54 %
05.01.2020 11:00 3,0 C 3,3 C 4,5 C 79 % 1035,4 hPa 0,0 l/m 6,5 km/h (2 Bft) NW 0,70 h 0,077 mm 0,4 UV-I 251 W/m -0,3 C 2,5 C 11,8 km/h (2 Bft) 95,87 %
05.01.2020 12:00 2,9 C 3,3 C 3,1 C 76 % 1034,9 hPa 0,0 l/m 7,4 km/h (2 Bft) W-NW 0,23 h 0,101 mm 0,5 UV-I 149 W/m -0,9 C 1,6 C 14,2 km/h (3 Bft) 96,50 %
05.01.2020 13:00 2,7 C 3,3 C 2,8 C 76 % 1034,7 hPa 0,0 l/m 7,3 km/h (2 Bft) W 0,00 h 0,076 mm 0,0 UV-I 60 W/m -1,1 C 1,4 C 12,6 km/h (3 Bft) 95,53 %
05.01.2020 14:00 2,5 C 3,3 C 2,6 C 80 % 1034,7 hPa 0,0 l/m 6,7 km/h (2 Bft) W-SW 0,00 h 0,026 mm 0,0 UV-I 48 W/m -0,6 C 2,0 C 10,7 km/h (2 Bft) 98,41 %
05.01.2020 15:00 2,4 C 3,3 C 2,0 C 82 % 1034,9 hPa 0,0 l/m 5,1 km/h (1 Bft) W 0,00 h 0,025 mm 0,0 UV-I 25 W/m -0,5 C 2,2 C 8,6 km/h (2 Bft) 96,97 %
05.01.2020 16:00 2,1 C 3,3 C 1,0 C 82 % 1035,3 hPa 0,0 l/m 4,5 km/h (1 Bft) W-NW 0,00 h 0,026 mm 0,0 UV-I 7 W/m -0,6 C 2,0 C 7,7 km/h (2 Bft) 98,07 %
05.01.2020 17:00 1,7 C 3,3 C 0,1 C 82 % 1035,6 hPa 0,0 l/m 4,3 km/h (1 Bft) NW 0,00 h 0,000 mm 0,0 UV-I 0 W/m -1,1 C 1,6 C 7,1 km/h (2 Bft) 95,96 %
05.01.2020 18:00 1,1 C 3,3 C -0,8 C 84 % 1035,7 hPa 0,0 l/m 3,4 km/h (1 Bft) W-SW 0,00 h 0,000 mm 0,0 UV-I 0 W/m -1,4 C 1,1 C 5,0 km/h (1 Bft) 96,98 %
05.01.2020 19:00 0,7 C 3,3 C -0,3 C 87 % 1035,9 hPa 0,0 l/m 3,2 km/h (1 Bft) SW 0,00 h 0,000 mm 0,0 UV-I 0 W/m -1,2 C 0,7 C 4,7 km/h (1 Bft) 98,93 %
05.01.2020 20:00 -0,1 C 3,3 C -2,6 C 90 % 1035,8 hPa 0,0 l/m 2,5 km/h (1 Bft) SW 0,00 h 0,000 mm 0,0 UV-I 0 W/m -1,6 C -0,1 C 3,8 km/h (1 Bft) 97,14 %
05.01.2020 21:00 -0,2 C 3,3 C -1,5 C 93 % 1035,6 hPa 0,0 l/m 1,9 km/h (1 Bft) S-SW 0,00 h 0,000 mm 0,0 UV-I 0 W/m -1,2 C -0,2 C 3,0 km/h (1 Bft) 96,70 %
05.01.2020 22:00 0,2 C 3,3 C -0,5 C 93 % 1035,4 hPa 0,0 l/m 2,6 km/h (1 Bft) SO 0,00 h 0,000 mm 0,0 UV-I 0 W/m -0,8 C 0,2 C 4,2 km/h (1 Bft) 96,52 %
05.01.2020 23:00 -0,1 C 3,3 C -1,6 C 93 % 1035,2 hPa 0,0 l/m 0,1 km/h (0 Bft) S-SO 0,00 h 0,000 mm 0,0 UV-I 0 W/m -1,0 C -0,1 C 0,3 km/h (0 Bft) 98,85 %
Min-Datum _ 30.12.19 02.01.20 30.12.19 31.12.19 04.01.20 - 30.12.19 - - - - - 30.12.19 04.01.20 30.12.19 02.01.20
_ Min-Zeit 04:10 04:24 00:56 13:52 06:26 - 00:04 - - - - - 04:10 20:10 00:04 00:02
Minimum _ -6,3 C 3,3 C -10,0 C 56 % 1025,1 hPa - 0,0 km/h (0 Bft) - - - - - -7,1 C -9,8 C 0,0 km/h (0 Bft) 5,26 %
Max-Datum _ 31.12.19 30.12.19 31.12.19 03.01.20 30.12.19 04.01.20 04.01.20 - 01.01.20 31.12.19 30.12.19 05.01.20 04.01.20 31.12.19 04.01.20 30.12.19
_ Max-Zeit 13:58 00:00 13:34 22:04 02:18 02:10 21:44 - 10:09 14:00 11:52 11:44 08:42 13:56 21:02 00:04
Maximum _ 7,6 C 3,9 C 7,8 C 98 % 1039,6 hPa 0,6 l/m 33,8 km/h
W (5 Bft)
- 0,05 h 0,152 mm 0,6 UV-I 441 W/m 5,1 C 7,4 C 59,5 km/h
W (7 Bft)
100,00 %
Durchschnitt _ 0,2 C 3,6 C -1,2 C 90 % 1031,6 hPa #4,2 l/m 6,0 km/h (2 Bft) W #27:40 h #3,481 mm 0,5 UV-I 107 W/m -1,4 C -1,3 C 9,5 km/h (2 Bft) 97,02 %